sensor_id;sensor_type;location;lat;lon;timestamp;P1;durP1;ratioP1;P2;durP2;ratioP2
16403;SDS011;8311;50.158;8.642;2023-12-20T00:01:23;2.13;;;1.50;;
16403;SDS011;8311;50.158;8.642;2023-12-20T00:04:18;1.73;;;1.30;;
16403;SDS011;8311;50.158;8.642;2023-12-20T00:07:13;2.03;;;1.40;;
16403;SDS011;8311;50.158;8.642;2023-12-20T00:10:08;1.33;;;1.10;;
16403;SDS011;8311;50.158;8.642;2023-12-20T00:13:03;2.17;;;1.25;;
16403;SDS011;8311;50.158;8.642;2023-12-20T00:15:59;2.90;;;1.40;;
16403;SDS011;8311;50.158;8.642;2023-12-20T00:18:52;1.75;;;1.38;;
16403;SDS011;8311;50.158;8.642;2023-12-20T00:21:45;1.73;;;1.30;;
16403;SDS011;8311;50.158;8.642;2023-12-20T00:24:40;2.00;;;1.30;;
16403;SDS011;8311;50.158;8.642;2023-12-20T00:27:32;2.78;;;1.60;;
16403;SDS011;8311;50.158;8.642;2023-12-20T00:30:25;1.88;;;1.40;;
16403;SDS011;8311;50.158;8.642;2023-12-20T00:33:19;2.00;;;1.45;;
16403;SDS011;8311;50.158;8.642;2023-12-20T00:36:12;2.53;;;1.52;;
16403;SDS011;8311;50.158;8.642;2023-12-20T00:39:06;1.63;;;1.30;;
16403;SDS011;8311;50.158;8.642;2023-12-20T00:42:01;2.03;;;1.40;;
16403;SDS011;8311;50.158;8.642;2023-12-20T00:44:55;3.05;;;1.30;;
16403;SDS011;8311;50.158;8.642;2023-12-20T00:47:47;1.60;;;1.20;;
16403;SDS011;8311;50.158;8.642;2023-12-20T00:50:43;1.33;;;1.05;;
16403;SDS011;8311;50.158;8.642;2023-12-20T00:53:36;2.42;;;1.30;;
16403;SDS011;8311;50.158;8.642;2023-12-20T00:56:28;2.58;;;1.45;;
16403;SDS011;8311;50.158;8.642;2023-12-20T00:59:23;1.80;;;1.50;;
16403;SDS011;8311;50.158;8.642;2023-12-20T01:02:15;3.17;;;1.50;;
16403;SDS011;8311;50.158;8.642;2023-12-20T01:05:09;1.55;;;1.10;;
16403;SDS011;8311;50.158;8.642;2023-12-20T01:08:01;2.00;;;1.48;;
16403;SDS011;8311;50.158;8.642;2023-12-20T01:10:55;2.65;;;1.40;;
16403;SDS011;8311;50.158;8.642;2023-12-20T01:13:47;2.00;;;1.45;;
16403;SDS011;8311;50.158;8.642;2023-12-20T01:16:42;1.80;;;1.25;;
16403;SDS011;8311;50.158;8.642;2023-12-20T01:19:35;2.22;;;1.17;;
16403;SDS011;8311;50.158;8.642;2023-12-20T01:22:29;1.95;;;1.35;;
16403;SDS011;8311;50.158;8.642;2023-12-20T01:25:23;2.28;;;1.20;;
16403;SDS011;8311;50.158;8.642;2023-12-20T01:28:15;2.03;;;1.38;;
16403;SDS011;8311;50.158;8.642;2023-12-20T01:31:08;1.60;;;1.10;;
16403;SDS011;8311;50.158;8.642;2023-12-20T01:34:04;1.50;;;1.35;;
16403;SDS011;8311;50.158;8.642;2023-12-20T01:36:56;1.73;;;1.13;;
16403;SDS011;8311;50.158;8.642;2023-12-20T01:39:50;1.77;;;1.10;;
16403;SDS011;8311;50.158;8.642;2023-12-20T01:42:44;2.00;;;1.30;;
16403;SDS011;8311;50.158;8.642;2023-12-20T01:45:37;2.13;;;1.30;;
16403;SDS011;8311;50.158;8.642;2023-12-20T01:48:31;1.13;;;1.00;;
16403;SDS011;8311;50.158;8.642;2023-12-20T01:51:26;2.30;;;1.42;;
16403;SDS011;8311;50.158;8.642;2023-12-20T01:54:20;2.33;;;1.27;;
16403;SDS011;8311;50.158;8.642;2023-12-20T01:57:14;1.60;;;1.13;;
16403;SDS011;8311;50.158;8.642;2023-12-20T02:00:08;1.35;;;1.17;;
16403;SDS011;8311;50.158;8.642;2023-12-20T02:03:04;1.63;;;1.10;;
16403;SDS011;8311;50.158;8.642;2023-12-20T02:05:58;1.80;;;1.27;;
16403;SDS011;8311;50.158;8.642;2023-12-20T02:08:52;2.35;;;1.23;;
16403;SDS011;8311;50.158;8.642;2023-12-20T02:11:47;1.38;;;1.05;;
16403;SDS011;8311;50.158;8.642;2023-12-20T02:14:40;2.05;;;1.20;;
16403;SDS011;8311;50.158;8.642;2023-12-20T02:17:32;1.58;;;1.13;;
16403;SDS011;8311;50.158;8.642;2023-12-20T02:20:26;1.42;;;1.13;;
16403;SDS011;8311;50.158;8.642;2023-12-20T02:23:20;2.15;;;1.40;;
16403;SDS011;8311;50.158;8.642;2023-12-20T02:26:12;2.05;;;1.20;;
16403;SDS011;8311;50.158;8.642;2023-12-20T02:29:07;1.65;;;1.25;;
16403;SDS011;8311;50.158;8.642;2023-12-20T02:32:01;1.63;;;1.15;;
16403;SDS011;8311;50.158;8.642;2023-12-20T02:34:55;1.38;;;1.02;;
16403;SDS011;8311;50.158;8.642;2023-12-20T02:37:49;1.63;;;1.20;;
16403;SDS011;8311;50.158;8.642;2023-12-20T02:40:43;1.92;;;1.20;;
16403;SDS011;8311;50.158;8.642;2023-12-20T02:43:41;1.98;;;1.20;;
16403;SDS011;8311;50.158;8.642;2023-12-20T02:46:37;1.73;;;1.23;;
16403;SDS011;8311;50.158;8.642;2023-12-20T02:49:30;1.92;;;1.20;;
16403;SDS011;8311;50.158;8.642;2023-12-20T02:52:23;1.27;;;1.10;;
16403;SDS011;8311;50.158;8.642;2023-12-20T02:55:16;1.80;;;1.20;;
16403;SDS011;8311;50.158;8.642;2023-12-20T02:58:12;2.03;;;1.20;;
16403;SDS011;8311;50.158;8.642;2023-12-20T03:01:06;1.65;;;1.00;;
16403;SDS011;8311;50.158;8.642;2023-12-20T03:03:59;2.25;;;1.17;;
16403;SDS011;8311;50.158;8.642;2023-12-20T03:06:52;1.38;;;1.10;;
16403;SDS011;8311;50.158;8.642;2023-12-20T03:09:45;1.25;;;1.13;;
16403;SDS011;8311;50.158;8.642;2023-12-20T03:12:58;1.50;;;1.20;;
16403;SDS011;8311;50.158;8.642;2023-12-20T03:15:52;1.92;;;1.30;;
16403;SDS011;8311;50.158;8.642;2023-12-20T03:18:46;1.38;;;1.13;;
16403;SDS011;8311;50.158;8.642;2023-12-20T03:21:39;2.08;;;1.40;;
16403;SDS011;8311;50.158;8.642;2023-12-20T03:24:32;1.70;;;1.33;;
16403;SDS011;8311;50.158;8.642;2023-12-20T03:27:25;2.08;;;1.27;;
16403;SDS011;8311;50.158;8.642;2023-12-20T03:30:17;1.75;;;1.10;;
16403;SDS011;8311;50.158;8.642;2023-12-20T03:33:12;1.00;;;0.85;;
16403;SDS011;8311;50.158;8.642;2023-12-20T03:36:05;1.85;;;1.17;;
16403;SDS011;8311;50.158;8.642;2023-12-20T03:38:57;1.58;;;1.00;;
16403;SDS011;8311;50.158;8.642;2023-12-20T03:41:50;1.35;;;1.10;;
16403;SDS011;8311;50.158;8.642;2023-12-20T03:44:44;1.80;;;0.98;;
16403;SDS011;8311;50.158;8.642;2023-12-20T03:47:36;1.85;;;1.05;;
16403;SDS011;8311;50.158;8.642;2023-12-20T03:50:32;1.55;;;1.10;;
16403;SDS011;8311;50.158;8.642;2023-12-20T03:53:26;1.10;;;1.00;;
16403;SDS011;8311;50.158;8.642;2023-12-20T03:56:20;1.10;;;1.00;;
16403;SDS011;8311;50.158;8.642;2023-12-20T03:59:14;1.10;;;1.00;;
16403;SDS011;8311;50.158;8.642;2023-12-20T04:02:07;1.15;;;1.00;;
16403;SDS011;8311;50.158;8.642;2023-12-20T04:05:00;1.77;;;1.25;;
16403;SDS011;8311;50.158;8.642;2023-12-20T04:07:54;1.63;;;0.95;;
16403;SDS011;8311;50.158;8.642;2023-12-20T04:10:49;0.98;;;0.88;;
16403;SDS011;8311;50.158;8.642;2023-12-20T04:13:41;1.95;;;1.20;;
16403;SDS011;8311;50.158;8.642;2023-12-20T04:16:35;1.85;;;1.10;;
16403;SDS011;8311;50.158;8.642;2023-12-20T04:19:28;0.98;;;0.85;;
16403;SDS011;8311;50.158;8.642;2023-12-20T04:22:21;1.35;;;1.10;;
16403;SDS011;8311;50.158;8.642;2023-12-20T04:25:16;1.73;;;1.13;;
16403;SDS011;8311;50.158;8.642;2023-12-20T04:28:10;1.50;;;1.10;;
16403;SDS011;8311;50.158;8.642;2023-12-20T04:31:03;1.40;;;0.90;;
16403;SDS011;8311;50.158;8.642;2023-12-20T04:33:56;2.03;;;1.15;;
16403;SDS011;8311;50.158;8.642;2023-12-20T04:36:48;1.60;;;1.23;;
16403;SDS011;8311;50.158;8.642;2023-12-20T04:39:44;0.77;;;0.70;;
16403;SDS011;8311;50.158;8.642;2023-12-20T04:42:38;1.58;;;1.10;;
16403;SDS011;8311;50.158;8.642;2023-12-20T04:45:32;1.15;;;1.02;;
16403;SDS011;8311;50.158;8.642;2023-12-20T04:48:24;1.85;;;1.25;;
16403;SDS011;8311;50.158;8.642;2023-12-20T04:51:18;1.45;;;1.02;;
16403;SDS011;8311;50.158;8.642;2023-12-20T04:54:12;1.23;;;1.00;;
16403;SDS011;8311;50.158;8.642;2023-12-20T04:57:05;1.10;;;0.88;;
16403;SDS011;8311;50.158;8.642;2023-12-20T05:00:00;2.10;;;0.88;;
16403;SDS011;8311;50.158;8.642;2023-12-20T05:02:55;1.17;;;0.90;;
16403;SDS011;8311;50.158;8.642;2023-12-20T05:05:50;0.93;;;0.90;;
16403;SDS011;8311;50.158;8.642;2023-12-20T05:08:44;1.80;;;1.10;;
16403;SDS011;8311;50.158;8.642;2023-12-20T05:11:37;1.73;;;1.08;;
16403;SDS011;8311;50.158;8.642;2023-12-20T05:14:30;1.10;;;1.00;;
16403;SDS011;8311;50.158;8.642;2023-12-20T05:17:25;1.17;;;0.90;;
16403;SDS011;8311;50.158;8.642;2023-12-20T05:20:18;1.40;;;0.90;;
16403;SDS011;8311;50.158;8.642;2023-12-20T05:23:12;1.55;;;1.20;;
16403;SDS011;8311;50.158;8.642;2023-12-20T05:26:05;1.40;;;1.20;;
16403;SDS011;8311;50.158;8.642;2023-12-20T05:28:58;1.15;;;0.80;;
16403;SDS011;8311;50.158;8.642;2023-12-20T05:31:51;2.13;;;1.10;;
16403;SDS011;8311;50.158;8.642;2023-12-20T05:34:46;1.15;;;0.90;;
16403;SDS011;8311;50.158;8.642;2023-12-20T05:37:40;1.40;;;1.00;;
16403;SDS011;8311;50.158;8.642;2023-12-20T05:40:34;0.60;;;0.60;;
16403;SDS011;8311;50.158;8.642;2023-12-20T05:43:26;1.05;;;0.93;;
16403;SDS011;8311;50.158;8.642;2023-12-20T05:46:21;1.17;;;0.95;;
16403;SDS011;8311;50.158;8.642;2023-12-20T05:49:14;1.35;;;0.80;;
16403;SDS011;8311;50.158;8.642;2023-12-20T05:52:09;1.80;;;1.00;;
16403;SDS011;8311;50.158;8.642;2023-12-20T05:55:03;1.17;;;0.77;;
16403;SDS011;8311;50.158;8.642;2023-12-20T05:57:58;1.52;;;0.90;;
16403;SDS011;8311;50.158;8.642;2023-12-20T06:00:53;1.10;;;0.90;;
16403;SDS011;8311;50.158;8.642;2023-12-20T06:03:46;1.08;;;0.88;;
16403;SDS011;8311;50.158;8.642;2023-12-20T06:06:42;1.33;;;1.02;;
16403;SDS011;8311;50.158;8.642;2023-12-20T06:09:38;2.05;;;0.90;;
16403;SDS011;8311;50.158;8.642;2023-12-20T06:12:32;1.65;;;0.95;;
16403;SDS011;8311;50.158;8.642;2023-12-20T06:15:27;1.35;;;0.95;;
16403;SDS011;8311;50.158;8.642;2023-12-20T06:18:19;1.40;;;0.98;;
16403;SDS011;8311;50.158;8.642;2023-12-20T06:21:14;1.55;;;1.08;;
16403;SDS011;8311;50.158;8.642;2023-12-20T06:24:07;1.38;;;0.80;;
16403;SDS011;8311;50.158;8.642;2023-12-20T06:27:02;1.20;;;0.85;;
16403;SDS011;8311;50.158;8.642;2023-12-20T06:29:56;2.17;;;1.10;;
16403;SDS011;8311;50.158;8.642;2023-12-20T06:32:49;1.13;;;0.85;;
16403;SDS011;8311;50.158;8.642;2023-12-20T06:35:42;1.27;;;0.90;;
16403;SDS011;8311;50.158;8.642;2023-12-20T06:38:35;1.13;;;0.85;;
16403;SDS011;8311;50.158;8.642;2023-12-20T06:41:28;1.55;;;1.15;;
16403;SDS011;8311;50.158;8.642;2023-12-20T06:44:23;0.95;;;0.80;;
16403;SDS011;8311;50.158;8.642;2023-12-20T06:47:17;0.82;;;0.75;;
16403;SDS011;8311;50.158;8.642;2023-12-20T06:50:12;1.13;;;1.00;;
16403;SDS011;8311;50.158;8.642;2023-12-20T06:53:06;1.35;;;0.90;;
16403;SDS011;8311;50.158;8.642;2023-12-20T06:55:59;1.05;;;0.95;;
16403;SDS011;8311;50.158;8.642;2023-12-20T06:58:52;1.00;;;0.82;;
16403;SDS011;8311;50.158;8.642;2023-12-20T07:01:48;1.95;;;1.05;;
16403;SDS011;8311;50.158;8.642;2023-12-20T07:04:42;1.27;;;0.85;;
16403;SDS011;8311;50.158;8.642;2023-12-20T07:07:35;1.58;;;0.98;;
16403;SDS011;8311;50.158;8.642;2023-12-20T07:10:30;1.75;;;1.10;;
16403;SDS011;8311;50.158;8.642;2023-12-20T07:13:23;0.70;;;0.70;;
16403;SDS011;8311;50.158;8.642;2023-12-20T07:16:16;2.33;;;0.90;;
16403;SDS011;8311;50.158;8.642;2023-12-20T07:19:10;0.70;;;0.70;;
16403;SDS011;8311;50.158;8.642;2023-12-20T07:22:04;1.38;;;0.95;;
16403;SDS011;8311;50.158;8.642;2023-12-20T07:24:58;1.30;;;0.90;;
16403;SDS011;8311;50.158;8.642;2023-12-20T07:27:52;1.35;;;0.98;;
16403;SDS011;8311;50.158;8.642;2023-12-20T07:30:45;1.17;;;0.88;;
16403;SDS011;8311;50.158;8.642;2023-12-20T07:33:38;1.55;;;0.90;;
16403;SDS011;8311;50.158;8.642;2023-12-20T07:36:33;1.83;;;1.30;;
16403;SDS011;8311;50.158;8.642;2023-12-20T07:39:26;2.08;;;1.02;;
16403;SDS011;8311;50.158;8.642;2023-12-20T07:42:19;1.35;;;0.93;;
16403;SDS011;8311;50.158;8.642;2023-12-20T07:45:13;1.65;;;1.02;;
16403;SDS011;8311;50.158;8.642;2023-12-20T07:48:06;1.30;;;0.90;;
16403;SDS011;8311;50.158;8.642;2023-12-20T07:51:01;1.90;;;1.20;;
16403;SDS011;8311;50.158;8.642;2023-12-20T07:53:55;1.92;;;1.17;;
16403;SDS011;8311;50.158;8.642;2023-12-20T07:56:48;1.50;;;1.00;;
16403;SDS011;8311;50.158;8.642;2023-12-20T07:59:42;1.33;;;1.10;;
16403;SDS011;8311;50.158;8.642;2023-12-20T08:02:36;1.17;;;1.05;;
16403;SDS011;8311;50.158;8.642;2023-12-20T08:05:29;2.47;;;1.08;;
16403;SDS011;8311;50.158;8.642;2023-12-20T08:08:22;1.10;;;1.00;;
16403;SDS011;8311;50.158;8.642;2023-12-20T08:11:17;1.52;;;0.95;;
16403;SDS011;8311;50.158;8.642;2023-12-20T08:14:12;1.15;;;0.82;;
16403;SDS011;8311;50.158;8.642;2023-12-20T08:17:06;0.93;;;0.73;;
16403;SDS011;8311;50.158;8.642;2023-12-20T08:19:59;1.98;;;1.20;;
16403;SDS011;8311;50.158;8.642;2023-12-20T08:22:53;1.45;;;1.17;;
16403;SDS011;8311;50.158;8.642;2023-12-20T08:25:46;1.83;;;1.00;;
16403;SDS011;8311;50.158;8.642;2023-12-20T08:28:43;0.98;;;0.88;;
16403;SDS011;8311;50.158;8.642;2023-12-20T08:31:37;2.03;;;1.05;;
16403;SDS011;8311;50.158;8.642;2023-12-20T08:34:30;1.48;;;1.20;;
16403;SDS011;8311;50.158;8.642;2023-12-20T08:37:23;0.90;;;0.80;;
16403;SDS011;8311;50.158;8.642;2023-12-20T08:40:16;1.52;;;1.00;;
16403;SDS011;8311;50.158;8.642;2023-12-20T08:43:09;1.77;;;1.02;;
16403;SDS011;8311;50.158;8.642;2023-12-20T08:46:05;0.95;;;0.90;;
16403;SDS011;8311;50.158;8.642;2023-12-20T08:49:01;10.07;;;3.63;;
16403;SDS011;8311;50.158;8.642;2023-12-20T08:51:55;10.77;;;3.35;;
16403;SDS011;8311;50.158;8.642;2023-12-20T08:54:48;8.52;;;3.15;;
16403;SDS011;8311;50.158;8.642;2023-12-20T08:57:46;9.20;;;3.92;;
16403;SDS011;8311;50.158;8.642;2023-12-20T09:00:40;10.77;;;4.00;;
16403;SDS011;8311;50.158;8.642;2023-12-20T09:03:36;6.28;;;2.85;;
16403;SDS011;8311;50.158;8.642;2023-12-20T09:06:29;8.30;;;3.88;;
16403;SDS011;8311;50.158;8.642;2023-12-20T09:09:23;7.50;;;3.78;;
16403;SDS011;8311;50.158;8.642;2023-12-20T09:12:17;9.30;;;3.05;;
16403;SDS011;8311;50.158;8.642;2023-12-20T09:15:10;8.27;;;3.47;;
16403;SDS011;8311;50.158;8.642;2023-12-20T09:18:03;7.57;;;2.95;;
16403;SDS011;8311;50.158;8.642;2023-12-20T09:20:58;8.63;;;3.35;;
16403;SDS011;8311;50.158;8.642;2023-12-20T09:23:51;7.40;;;2.63;;
16403;SDS011;8311;50.158;8.642;2023-12-20T09:26:44;11.38;;;3.25;;
16403;SDS011;8311;50.158;8.642;2023-12-20T09:29:37;6.63;;;3.05;;
16403;SDS011;8311;50.158;8.642;2023-12-20T09:32:31;7.88;;;3.40;;
16403;SDS011;8311;50.158;8.642;2023-12-20T09:35:24;7.43;;;2.65;;
16403;SDS011;8311;50.158;8.642;2023-12-20T09:38:20;6.15;;;2.65;;
16403;SDS011;8311;50.158;8.642;2023-12-20T09:41:14;8.02;;;3.03;;
16403;SDS011;8311;50.158;8.642;2023-12-20T09:44:08;4.05;;;2.38;;
16403;SDS011;8311;50.158;8.642;2023-12-20T09:47:06;6.40;;;3.10;;
16403;SDS011;8311;50.158;8.642;2023-12-20T09:50:02;10.20;;;3.60;;
16403;SDS011;8311;50.158;8.642;2023-12-20T09:52:55;24.45;;;5.18;;
16403;SDS011;8311;50.158;8.642;2023-12-20T09:55:52;23.65;;;5.45;;
16403;SDS011;8311;50.158;8.642;2023-12-20T09:58:46;25.38;;;5.38;;
16403;SDS011;8311;50.158;8.642;2023-12-20T10:01:40;29.60;;;5.43;;
16403;SDS011;8311;50.158;8.642;2023-12-20T10:04:35;19.83;;;6.07;;
16403;SDS011;8311;50.158;8.642;2023-12-20T10:07:28;28.73;;;5.50;;
16403;SDS011;8311;50.158;8.642;2023-12-20T10:10:23;25.63;;;4.72;;
16403;SDS011;8311;50.158;8.642;2023-12-20T10:13:33;16.25;;;4.90;;
16403;SDS011;8311;50.158;8.642;2023-12-20T10:16:27;13.77;;;5.13;;
16403;SDS011;8311;50.158;8.642;2023-12-20T10:19:21;15.77;;;4.75;;
16403;SDS011;8311;50.158;8.642;2023-12-20T10:22:14;13.27;;;3.78;;
16403;SDS011;8311;50.158;8.642;2023-12-20T10:25:08;18.25;;;4.07;;
16403;SDS011;8311;50.158;8.642;2023-12-20T10:28:08;19.17;;;5.22;;
16403;SDS011;8311;50.158;8.642;2023-12-20T10:31:04;17.92;;;4.95;;
16403;SDS011;8311;50.158;8.642;2023-12-20T10:33:58;11.15;;;4.07;;
16403;SDS011;8311;50.158;8.642;2023-12-20T10:36:52;13.70;;;4.13;;
16403;SDS011;8311;50.158;8.642;2023-12-20T10:39:46;13.93;;;4.53;;
16403;SDS011;8311;50.158;8.642;2023-12-20T10:42:42;21.35;;;5.32;;
16403;SDS011;8311;50.158;8.642;2023-12-20T10:45:36;10.65;;;3.97;;
16403;SDS011;8311;50.158;8.642;2023-12-20T10:48:31;12.48;;;4.35;;
16403;SDS011;8311;50.158;8.642;2023-12-20T10:51:26;12.18;;;3.88;;
16403;SDS011;8311;50.158;8.642;2023-12-20T10:54:21;13.40;;;4.57;;
16403;SDS011;8311;50.158;8.642;2023-12-20T10:57:14;14.52;;;4.25;;
16403;SDS011;8311;50.158;8.642;2023-12-20T11:00:13;15.82;;;4.28;;
16403;SDS011;8311;50.158;8.642;2023-12-20T11:03:08;11.20;;;3.38;;
16403;SDS011;8311;50.158;8.642;2023-12-20T11:06:07;8.48;;;3.45;;
16403;SDS011;8311;50.158;8.642;2023-12-20T11:09:08;8.05;;;3.17;;
16403;SDS011;8311;50.158;8.642;2023-12-20T11:12:09;7.47;;;2.78;;
16403;SDS011;8311;50.158;8.642;2023-12-20T11:15:05;5.70;;;2.50;;
16403;SDS011;8311;50.158;8.642;2023-12-20T11:18:00;8.50;;;2.65;;
16403;SDS011;8311;50.158;8.642;2023-12-20T11:20:54;5.95;;;2.70;;
16403;SDS011;8311;50.158;8.642;2023-12-20T11:23:49;9.63;;;2.85;;
16403;SDS011;8311;50.158;8.642;2023-12-20T11:26:46;6.22;;;2.60;;
16403;SDS011;8311;50.158;8.642;2023-12-20T11:29:43;10.90;;;2.25;;
16403;SDS011;8311;50.158;8.642;2023-12-20T11:32:44;4.97;;;2.30;;
16403;SDS011;8311;50.158;8.642;2023-12-20T11:35:39;8.70;;;2.60;;
16403;SDS011;8311;50.158;8.642;2023-12-20T11:38:35;7.90;;;2.17;;
16403;SDS011;8311;50.158;8.642;2023-12-20T11:41:32;5.07;;;2.47;;
16403;SDS011;8311;50.158;8.642;2023-12-20T11:44:25;5.28;;;2.22;;
16403;SDS011;8311;50.158;8.642;2023-12-20T11:47:22;5.63;;;2.28;;
16403;SDS011;8311;50.158;8.642;2023-12-20T11:50:15;5.30;;;2.13;;
16403;SDS011;8311;50.158;8.642;2023-12-20T11:53:10;4.65;;;2.17;;
16403;SDS011;8311;50.158;8.642;2023-12-20T11:56:03;4.90;;;2.05;;
16403;SDS011;8311;50.158;8.642;2023-12-20T11:58:59;5.38;;;1.98;;
16403;SDS011;8311;50.158;8.642;2023-12-20T12:02:11;4.85;;;2.13;;
16403;SDS011;8311;50.158;8.642;2023-12-20T12:05:06;6.20;;;2.17;;
16403;SDS011;8311;50.158;8.642;2023-12-20T12:08:00;5.07;;;2.00;;
16403;SDS011;8311;50.158;8.642;2023-12-20T12:10:56;3.75;;;1.98;;
16403;SDS011;8311;50.158;8.642;2023-12-20T12:13:50;6.38;;;2.25;;
16403;SDS011;8311;50.158;8.642;2023-12-20T12:16:44;5.47;;;2.28;;
16403;SDS011;8311;50.158;8.642;2023-12-20T12:19:38;5.30;;;1.90;;
16403;SDS011;8311;50.158;8.642;2023-12-20T12:22:33;4.78;;;1.95;;
16403;SDS011;8311;50.158;8.642;2023-12-20T12:25:28;5.50;;;2.00;;
16403;SDS011;8311;50.158;8.642;2023-12-20T12:28:25;3.80;;;1.88;;
16403;SDS011;8311;50.158;8.642;2023-12-20T12:31:19;5.65;;;1.92;;
16403;SDS011;8311;50.158;8.642;2023-12-20T12:34:14;6.95;;;2.35;;
16403;SDS011;8311;50.158;8.642;2023-12-20T12:37:08;3.20;;;1.80;;
16403;SDS011;8311;50.158;8.642;2023-12-20T12:40:05;3.33;;;1.80;;
16403;SDS011;8311;50.158;8.642;2023-12-20T12:42:59;4.45;;;1.50;;
16403;SDS011;8311;50.158;8.642;2023-12-20T12:45:53;5.03;;;1.70;;
16403;SDS011;8311;50.158;8.642;2023-12-20T12:48:47;4.88;;;2.13;;
16403;SDS011;8311;50.158;8.642;2023-12-20T12:51:43;4.88;;;2.08;;
16403;SDS011;8311;50.158;8.642;2023-12-20T12:54:38;3.47;;;1.77;;
16403;SDS011;8311;50.158;8.642;2023-12-20T12:57:32;4.25;;;1.95;;
16403;SDS011;8311;50.158;8.642;2023-12-20T13:00:26;4.68;;;1.52;;
16403;SDS011;8311;50.158;8.642;2023-12-20T13:03:19;3.92;;;1.67;;
16403;SDS011;8311;50.158;8.642;2023-12-20T13:06:16;4.50;;;1.73;;
16403;SDS011;8311;50.158;8.642;2023-12-20T13:09:12;3.35;;;1.73;;
16403;SDS011;8311;50.158;8.642;2023-12-20T13:12:08;5.95;;;1.92;;
16403;SDS011;8311;50.158;8.642;2023-12-20T13:15:01;3.35;;;1.77;;
16403;SDS011;8311;50.158;8.642;2023-12-20T13:17:55;6.50;;;2.00;;
16403;SDS011;8311;50.158;8.642;2023-12-20T13:20:48;3.72;;;1.80;;
16403;SDS011;8311;50.158;8.642;2023-12-20T13:23:42;3.63;;;1.90;;
16403;SDS011;8311;50.158;8.642;2023-12-20T13:26:36;4.55;;;1.83;;
16403;SDS011;8311;50.158;8.642;2023-12-20T13:29:31;2.97;;;1.80;;
16403;SDS011;8311;50.158;8.642;2023-12-20T13:32:27;4.75;;;1.85;;
16403;SDS011;8311;50.158;8.642;2023-12-20T13:35:21;5.63;;;1.90;;
16403;SDS011;8311;50.158;8.642;2023-12-20T13:38:14;6.25;;;2.00;;
16403;SDS011;8311;50.158;8.642;2023-12-20T13:41:07;4.63;;;1.58;;
16403;SDS011;8311;50.158;8.642;2023-12-20T13:44:01;3.00;;;1.40;;
16403;SDS011;8311;50.158;8.642;2023-12-20T13:46:55;5.55;;;2.00;;
16403;SDS011;8311;50.158;8.642;2023-12-20T13:49:48;5.18;;;1.70;;
16403;SDS011;8311;50.158;8.642;2023-12-20T13:52:44;4.25;;;1.67;;
16403;SDS011;8311;50.158;8.642;2023-12-20T13:55:37;5.93;;;1.77;;
16403;SDS011;8311;50.158;8.642;2023-12-20T13:58:32;4.63;;;1.70;;
16403;SDS011;8311;50.158;8.642;2023-12-20T14:01:30;5.30;;;1.75;;
16403;SDS011;8311;50.158;8.642;2023-12-20T14:04:23;3.60;;;1.60;;
16403;SDS011;8311;50.158;8.642;2023-12-20T14:07:33;4.70;;;1.70;;
16403;SDS011;8311;50.158;8.642;2023-12-20T14:10:28;3.60;;;1.50;;
16403;SDS011;8311;50.158;8.642;2023-12-20T14:13:21;4.70;;;1.63;;
16403;SDS011;8311;50.158;8.642;2023-12-20T14:16:14;2.67;;;1.15;;
16403;SDS011;8311;50.158;8.642;2023-12-20T14:19:09;3.35;;;1.42;;
16403;SDS011;8311;50.158;8.642;2023-12-20T14:22:03;2.55;;;1.60;;
16403;SDS011;8311;50.158;8.642;2023-12-20T14:24:56;4.40;;;1.50;;
16403;SDS011;8311;50.158;8.642;2023-12-20T14:27:49;8.40;;;2.10;;
16403;SDS011;8311;50.158;8.642;2023-12-20T14:30:43;6.05;;;2.03;;
16403;SDS011;8311;50.158;8.642;2023-12-20T14:33:37;7.90;;;2.33;;
16403;SDS011;8311;50.158;8.642;2023-12-20T14:36:32;6.85;;;2.20;;
16403;SDS011;8311;50.158;8.642;2023-12-20T14:39:26;6.70;;;2.17;;
16403;SDS011;8311;50.158;8.642;2023-12-20T14:42:19;5.72;;;2.00;;
16403;SDS011;8311;50.158;8.642;2023-12-20T14:45:15;10.35;;;1.85;;
16403;SDS011;8311;50.158;8.642;2023-12-20T14:48:09;8.88;;;2.13;;
16403;SDS011;8311;50.158;8.642;2023-12-20T14:51:03;4.43;;;1.55;;
16403;SDS011;8311;50.158;8.642;2023-12-20T14:54:00;4.25;;;1.75;;
16403;SDS011;8311;50.158;8.642;2023-12-20T14:56:53;3.70;;;1.70;;
16403;SDS011;8311;50.158;8.642;2023-12-20T14:59:55;5.25;;;1.80;;
16403;SDS011;8311;50.158;8.642;2023-12-20T15:02:49;5.63;;;1.83;;
16403;SDS011;8311;50.158;8.642;2023-12-20T15:05:43;3.78;;;1.63;;
16403;SDS011;8311;50.158;8.642;2023-12-20T15:08:39;5.65;;;1.40;;
16403;SDS011;8311;50.158;8.642;2023-12-20T15:11:33;4.68;;;1.60;;
16403;SDS011;8311;50.158;8.642;2023-12-20T15:14:27;4.32;;;1.40;;
16403;SDS011;8311;50.158;8.642;2023-12-20T15:17:20;6.72;;;1.85;;
16403;SDS011;8311;50.158;8.642;2023-12-20T15:20:13;6.18;;;1.63;;
16403;SDS011;8311;50.158;8.642;2023-12-20T15:23:07;5.32;;;1.88;;
16403;SDS011;8311;50.158;8.642;2023-12-20T15:26:00;4.38;;;1.63;;
16403;SDS011;8311;50.158;8.642;2023-12-20T15:28:55;6.30;;;1.73;;
16403;SDS011;8311;50.158;8.642;2023-12-20T15:31:48;4.22;;;1.98;;
16403;SDS011;8311;50.158;8.642;2023-12-20T15:34:41;4.88;;;1.70;;
16403;SDS011;8311;50.158;8.642;2023-12-20T15:37:34;4.68;;;1.63;;
16403;SDS011;8311;50.158;8.642;2023-12-20T15:40:29;4.03;;;1.65;;
16403;SDS011;8311;50.158;8.642;2023-12-20T15:43:22;6.00;;;1.60;;
16403;SDS011;8311;50.158;8.642;2023-12-20T15:46:19;3.88;;;1.50;;
16403;SDS011;8311;50.158;8.642;2023-12-20T15:49:12;4.68;;;1.80;;
16403;SDS011;8311;50.158;8.642;2023-12-20T15:52:07;3.80;;;1.80;;
16403;SDS011;8311;50.158;8.642;2023-12-20T15:55:00;3.17;;;1.40;;
16403;SDS011;8311;50.158;8.642;2023-12-20T15:57:55;4.45;;;1.52;;
16403;SDS011;8311;50.158;8.642;2023-12-20T16:00:49;3.78;;;1.70;;
16403;SDS011;8311;50.158;8.642;2023-12-20T16:03:45;7.18;;;1.38;;
16403;SDS011;8311;50.158;8.642;2023-12-20T16:06:49;2.42;;;1.42;;
16403;SDS011;8311;50.158;8.642;2023-12-20T16:09:46;5.18;;;1.50;;
16403;SDS011;8311;50.158;8.642;2023-12-20T16:12:39;5.22;;;1.52;;
16403;SDS011;8311;50.158;8.642;2023-12-20T16:15:32;3.10;;;1.50;;
16403;SDS011;8311;50.158;8.642;2023-12-20T16:18:25;4.10;;;1.52;;
16403;SDS011;8311;50.158;8.642;2023-12-20T16:21:21;3.40;;;1.52;;
16403;SDS011;8311;50.158;8.642;2023-12-20T16:24:14;2.60;;;1.38;;
16403;SDS011;8311;50.158;8.642;2023-12-20T16:27:08;4.35;;;1.08;;
16403;SDS011;8311;50.158;8.642;2023-12-20T16:30:03;5.00;;;1.52;;
16403;SDS011;8311;50.158;8.642;2023-12-20T16:32:57;4.15;;;1.30;;
16403;SDS011;8311;50.158;8.642;2023-12-20T16:35:50;5.20;;;1.23;;
16403;SDS011;8311;50.158;8.642;2023-12-20T16:38:46;3.17;;;1.40;;
16403;SDS011;8311;50.158;8.642;2023-12-20T16:41:39;2.03;;;1.33;;
16403;SDS011;8311;50.158;8.642;2023-12-20T16:44:33;1.63;;;1.00;;
16403;SDS011;8311;50.158;8.642;2023-12-20T16:47:26;3.35;;;1.02;;
16403;SDS011;8311;50.158;8.642;2023-12-20T16:50:21;3.80;;;1.45;;
16403;SDS011;8311;50.158;8.642;2023-12-20T16:53:15;4.82;;;1.88;;
16403;SDS011;8311;50.158;8.642;2023-12-20T16:56:10;3.45;;;1.10;;
16403;SDS011;8311;50.158;8.642;2023-12-20T16:59:04;1.83;;;0.98;;
16403;SDS011;8311;50.158;8.642;2023-12-20T17:01:57;4.32;;;1.42;;
16403;SDS011;8311;50.158;8.642;2023-12-20T17:04:53;2.47;;;1.30;;
16403;SDS011;8311;50.158;8.642;2023-12-20T17:07:46;3.88;;;1.20;;
16403;SDS011;8311;50.158;8.642;2023-12-20T17:10:40;5.18;;;1.40;;
16403;SDS011;8311;50.158;8.642;2023-12-20T17:13:35;3.10;;;1.30;;
16403;SDS011;8311;50.158;8.642;2023-12-20T17:16:28;3.85;;;1.80;;
16403;SDS011;8311;50.158;8.642;2023-12-20T17:19:22;4.55;;;2.08;;
16403;SDS011;8311;50.158;8.642;2023-12-20T17:22:16;9.13;;;2.53;;
16403;SDS011;8311;50.158;8.642;2023-12-20T17:25:10;8.32;;;2.55;;
16403;SDS011;8311;50.158;8.642;2023-12-20T17:28:06;5.30;;;2.08;;
16403;SDS011;8311;50.158;8.642;2023-12-20T17:31:01;7.25;;;2.17;;
16403;SDS011;8311;50.158;8.642;2023-12-20T17:33:54;11.45;;;2.22;;
16403;SDS011;8311;50.158;8.642;2023-12-20T17:36:47;5.47;;;1.92;;
16403;SDS011;8311;50.158;8.642;2023-12-20T17:39:42;7.18;;;2.00;;
16403;SDS011;8311;50.158;8.642;2023-12-20T17:42:36;8.07;;;1.90;;
16403;SDS011;8311;50.158;8.642;2023-12-20T17:45:29;6.95;;;2.00;;